METAR Data
IDs: Format: Raw Decoded Include TAF

Data at: 2053 UTC 25 Oct 2021

EPKT 252030Z 19004KT 160V220 8000 NSC 03/M02 Q1022